Odin, Kansas
Current Conditions -  °F | °C
As of 11:35 AM on Sunday 23 Nov 2014 (Local Time) from KGBD Reporting Station
Overcast Overcast  
Wind Chill: 50°   Ceiling: 5000
Heat Index: 50°   Visibility: 10mi
Dew Point: 36°   Wind: 35mph
Humidity: 58%   Direction: 350°N
Pressure: 29.54"   Gusts: 45mph
Location:  38.5656°N, 98.5907°W
Report Text: KGBD 231735Z AUTO 35030G39KT 10SM FEW030 OVC050 10/02 A2954 RMK AO1
Loading
Personal Weather Stations






























Interactive Weather Map New forecast layout! Learn more

10-Day Weather Forecast

Advertisements
Track Severe Weather on mobile